• Join FlightAware (Why Join?)
  • Login
  • US Flag 
11:49AM EDT


 

Airport Tracker/Info


-or-


 

Live Flight TrackerFlight Track Log ✈ AWE55 ✈ 22-Jul-2013 ✈ KLAX - KPHX

Flight Track Log - Related Links

Times and Time Zones

All times are in EDT time to prevent confusion due to time zone crossing. See the AWE55 flight status page for this flight to view local times or setup timezone preferences in your user account.

Time Position Orientation Groundspeed Altitude Reporting Facility
EDT Latitude Longitude Course Direction KTS MPH feet Rate Location/Type
08:12PM 33.9281 -118.4589 90° East 198 228 2,000  Level Los Angeles Center
08:13PM 33.8864 -118.5208 231° Southwest 243 280 3,700 1,680 Climbing Los Angeles Center
08:14PM 33.6820 -118.5086 101° East  Level FlightAware Approximate
08:14PM 33.8181 -118.5353 190° South 269 310 5,500  Level Los Angeles Center
08:15PM 33.6333 -118.3194 90° East  Level FlightAware Approximate
08:15PM 33.7419 -118.5269 175° South 277 319 8,100  Level Los Angeles Center
08:16PM 33.6333 -118.1193 90° East  Level FlightAware Approximate
08:16PM 33.6778 -118.4536 136° Southeast 297 342 10,700  Level Los Angeles Center
08:17PM 33.6334 -117.9191 90° East  Level FlightAware Approximate
08:17PM 33.6467 -118.3508 110° East 330 380 12,400  Level Los Angeles Center
08:18PM 33.6442 -118.2303 91° East 369 425 13,900 1,740 Climbing Los Angeles Center
08:19PM 33.6450 -118.1064 90° East 377 434 16,000 1,980 Climbing Los Angeles Center
08:20PM 33.6447 -117.9500 90° East 391 450 18,000 1,680 Climbing Los Angeles Center
08:21PM 33.6442 -117.8164 90° East 402 463 19,500 1,380 Climbing Los Angeles Center
08:22PM 33.6442 -117.6756 90° East 420 483 20,900 1,140 Climbing Los Angeles Center
08:24PM 33.6442 -117.5317 90° East 430 495 22,200 960 Climbing Los Angeles Center
08:25PM 33.6422 -117.3547 91° East 442 509 23,400 1,200 Climbing Los Angeles Center
08:26PM 33.6411 -117.1431 90° East 455 524 25,200 1,200 Climbing Los Angeles Center
08:27PM 33.6386 -116.9594 91° East 461 531 26,200 840 Climbing Los Angeles Center
08:28PM 33.6381 -116.8094 90° East 468 539 27,000 780 Climbing Los Angeles Center
08:29PM 33.6367 -116.6181 90° East 475 547 28,000 780 Climbing Los Angeles Center
08:30PM 33.6331 -116.4589 92° East 476 548 28,900 1,200 Climbing Los Angeles Center
08:31PM 33.6311 -116.2667 91° East 477 549 30,500 960 Climbing Los Angeles Center
08:32PM 33.6281 -116.1081 91° East 475 547 31,000 780 Climbing Los Angeles Center
08:33PM 33.6242 -115.9506 92° East 470 541 32,200 900 Climbing Los Angeles Center
08:35PM 33.6214 -115.7958 91° East 465 535 32,900 300 Climbing Los Angeles Center
08:36PM 33.6178 -115.6408 92° East 464 534 32,900  Level Los Angeles Center
08:37PM 33.6144 -115.4869 91° East 463 533 33,000  Climbing Los Angeles Center
08:38PM 33.6097 -115.2997 92° East 466 536 33,000  Level Los Angeles Center
08:39PM 33.6053 -115.1467 92° East 463 533 33,000 -60 Level Los Angeles Center
08:40PM 33.6011 -114.9950 92° East 458 527 32,900 -60 Descending Los Angeles Center
08:41PM 33.5933 -114.8406 93° East 463 533 32,900  Level Los Angeles Center
08:42PM 33.5806 -114.6922 96° East 452 520 32,900 -480 Level Los Angeles Center
08:43PM 33.5508 -114.5447 104° East 452 520 32,000 -2,040 Descending Los Angeles Center
08:44PM 33.5172 -114.3611 102° East 475 547 28,700 -2,640 Descending Los Angeles Center
08:45PM 33.4886 -114.2144 103° East 458 527 26,500 -1,860 Descending Los Angeles Center
08:46PM 33.4600 -114.0719 103° East 443 510 24,900 -1,260 Descending Los Angeles Center
08:47PM 33.4350 -113.9383 103° East 417 480 24,000 -1,020 Descending Los Angeles Center
08:48PM 33.4078 -113.8061 104° East 432 497 22,800 -1,260 Descending Los Angeles Center
08:49PM 33.3756 -113.6419 103° East 425 489 21,500 -1,140 Descending Los Angeles Center
08:50PM 33.3483 -113.5086 104° East 416 479 20,500 -1,020 Descending Los Angeles Center
08:51PM 33.3208 -113.3747 104° East 414 476 19,400 -960 Descending Los Angeles Center
08:52PM 33.2994 -113.2697 104° East 410 472 18,600 -1,020 Descending Los Angeles Center
08:53PM 33.2756 -113.1158 100° East 403 464 17,300 -1,080 Descending Los Angeles Center
08:54PM 33.2833 -112.9667 86° East 390 449 16,400 -960 Descending Phoenix TRACON
08:55PM 33.2833 -112.8833 90° East 381 438 15,700 -900 Descending Phoenix TRACON
08:56PM 33.2811 -112.8136 92° East 372 428 15,200 -480 Descending Albuquerque Center
08:57PM 33.2836 -112.6953 89° East 360 414 14,900 -960 Descending Albuquerque Center
08:58PM 33.2881 -112.5522 88° East 374 430 13,300 -1,860 Descending Albuquerque Center
08:59PM 33.2908 -112.4328 88° East 364 419 11,200 -1,260 Descending Albuquerque Center
09:00PM 33.2947 -112.3178 88° East 351 404 10,800 -600 Descending Albuquerque Center
09:01PM 33.3025 -112.2169 85° East 309 356 10,000 -900 Descending Albuquerque Center
09:02PM 33.3092 -112.1219 85° East 291 335 9,000 -840 Descending Albuquerque Center
09:03PM 33.3253 -112.0408 77° East 252 290 8,400 -960 Descending Albuquerque Center
09:04PM 33.3469 -111.9478 74° East 243 280 7,100 -1,140 Descending Albuquerque Center
09:05PM 33.3450 -111.8678 92° East 241 277 6,100 -600 Descending Albuquerque Center
09:06PM 33.3444 -111.7922 90° East 231 266 5,900 -540 Descending Albuquerque Center
09:07PM 33.3850 -111.7553 37° Northeast 202 232 5,100 -840 Descending Albuquerque Center